AirNav   Everest Fuels
 
 641 users online  

0NC6 Our Community Hospital Heliport
Scotland Neck, North Carolina, USA

GOING TO SCOTLAND NECK?


FAA INFORMATION EFFECTIVE 16 JUNE 2022

Location

FAA Identifier: 0NC6
Lat/Long: 36-07-41.5600N 077-25-45.0100W
36-07.692667N 077-25.750167W
36.1282111,-77.4291694
(estimated)
Elevation: 113 ft. / 34 m (estimated)
Variation: 08W (1985)
Time zone: UTC -4 (UTC -5 during Standard Time)
Zip code: 27874

Heliport Operations

Heliport use: Private use, MEDICAL.
Activation date: 09/1980
Control tower: no
ARTCC: WASHINGTON CENTER
FSS: RALEIGH FLIGHT SERVICE STATION
Attendance: UNATNDD
Wind indicator: no
Segmented circle: no

Heliport Communications

WX AWOS-3P at ETC (13 nm SW): 119.575 (252-641-1640)
WX AWOS-3PT at IXA (16 nm NW): 119.975 (252-583-3446)
WX AWOS-3 at ASJ (16 nm NE): 119.075 (252-345-2967)

Nearby radio navigation aids

VOR radial/distance  VOR name  Freq  Var
TYIr061/16.1TAR RIVER VORTAC117.8005W
CVIr250/30.7COFIELD VORTAC114.6009W

 
NDB name  Hdg/Dist  Freq  Var  ID
ALWOOD003/25.423009WAQE .- --.- .

Heliport Services

Runway Information

Helipad H1

Dimensions: 200 x 150 ft. / 61 x 46 m
Surface: turf
Latitude: 36-07.692667N
Longitude: 077-25.750167W
Elevation: 113.0 ft.
Traffic pattern: leftleft

Heliport Ownership and Management from official FAA records

Ownership: Privately-owned
Owner: OUR COMMUNITY HOSPITAL
921 JR HIGH SCHOOL ROAD, PO BOX 405
SCOTLAND NECK, NC 27874
Phone 252-826-4144
Manager: KIM STALLINGS
921 JR HIGH SCHOOL ROAD, PO BOX 405
SCOTLAND NECK, NC 27874
Phone 252-883-5086

Additional Remarks

FOR CD CTC WASHINGTON ARTCC AT 703-771-3587.

Instrument Procedures

There are no published instrument procedures at 0NC6.

Some nearby airports with instrument procedures:

KETC - Tarboro-Edgecombe Airport (13 nm SW)
KIXA - Halifax/Northampton Regional Airport (16 nm NW)
KASJ - Tri-County Airport at Henry Joyner Field (16 nm NE)
KMCZ - Martin County Airport (20 nm SE)
KRWI - Rocky Mount/Wilson Regional Airport (28 nm SW)
 
Loc | Ops | Rwys | IFR | FBO | Links
Com | Nav | Svcs | Stats | Notes
Area around 0NC6 (Our Community Hospital Heliport)
 
Road maps at: MapQuest Bing Google
 
Aerial photo
No photo
 
Sectional chart

 
Airport distance calculator
Flying to Our Community Hospital Heliport? Find the distance to fly.

From to 0NC6

Sunrise and sunset
Times for 06-Jul-2022
 Local
(UTC-4)
 Zulu
(UTC)
Morning civil twilight05:3009:30
Sunrise06:0010:00
Sunset20:2900:29
Evening civil twilight20:5900:59

Current date and time
Zulu (UTC)  06-Jul-2022 05:45:09
Local (UTC-4)  06-Jul-2022 01:45:09
 
METAR
KETC 
13nm SW 
060535Z AUTO 00000KT 10SM OVC024 25/22 A2995 RMK AO2 T02520219
KIXA 
16nm NW 
060535Z AUTO 15004KT 10SM SCT036 SCT050 21/21 A2996 RMK AO2
KASJ 
16nm NE 
060535Z AUTO 00000KT 10SM CLR 24/23 A2995 RMK AO2 T02370230
TAF
KRWI 
28nm SW 
052308Z 0523/0618 21007KT P6SM VCTS BKN040CB BKN250 TEMPO 0523/0601 32015G30KT 2SM -TSRA SCT020 BKN040CB FM060300 20003KT P6SM VCSH BKN050 BKN250 FM060600 21003KT P6SM SCT012 BKN060 FM061300 24007KT P6SM SCT035 BKN090
KPGV 
31nm S 
060153Z 0602/0624 19010KT P6SM FEW050 BKN150 FM061400 22010KT P6SM SCT040 FM062100 22010KT P6SM SHRA VCTS BKN040CB AMD LTD TO CLD VIS AND WIND
NOTAMs
Click for the latest NOTAMs
NOTAMs are issued by the DoD/FAA and will open in a separate window not controlled by AirNav.

 

 
 

Would you like to see your business listed on this page?

 If your business provides an interesting product or service to pilots, flight crews, aircraft, or users of the Our Community Hospital Heliport, you should consider listing it here.  To start the listing process, click on the button below
 
Add a business
 

Other Pages about Our Community Hospital Heliport

Update a link
 
Copyright © AirNav, LLC. All rights reserved. Privacy Policy  Contact